Latest Weather Observations for Loxton

IDS60801

Issued at 11:05 am CST Monday 15 September 2014 (issued every 30 minutes, with the page automatically refreshed every 10 minutes)

About weather observations | Map of weather stations | Latest weather observations for SA | Other Formats
Station Details ID: 024024 Name: LOXTON RESEARCH CENTRE Lat: -34.44 Lon: 140.60 Height: 30.1 m
Data from the previous 72 hours. | See also: Recent months at Loxton
Date/Time
CST
Temp
°C
App
Temp
°C
Dew
Point
Rel
Hum
%
Delta-T
°C
Wind Press
QNH
hPa
Press
MSL
hPa
Rain
since 9 am
mm
Dir
 
Spd
km/h
Gust
km/h
Spd
kts
Gust
kts
15/11:00am 18.1 12.7 8.2 52 5.1 NW 26 43 14 23 1009.7 1009.7 0.0
15/10:30am 19.2 14.9 7.7 47 5.9 WNW 20 33 11 18 1010.1 1010.1 0.0
15/10:00am 17.9 12.9 7.9 52 5.1 NW 24 32 13 17 1010.4 1010.4 0.0
15/09:30am 17.2 13.1 7.7 53 4.8 WNW 19 28 10 15 1010.7 1010.7 0.0
15/09:00am 16.2 12.4 7.6 56 4.3 WNW 17 24 9 13 1010.9 1010.9 0.0
15/08:30am 15.9 11.7 7.5 57 4.2 WNW 19 24 10 13 1011.1 1011.1 0.0
15/08:00am 13.7 11.5 7.8 67 2.9 WNW 9 15 5 8 1011.3 1011.3 0.0
15/07:30am 11.7 10.1 8.0 78 1.8 WNW 6 9 3 5 1011.3 1011.3 0.0
15/07:00am 10.6 10.1 7.9 83 1.3 CALM 0 0 0 0 1011.1 1011.1 0.0
15/06:30am 11.3 10.0 7.8 79 1.7 NW 4 7 2 4 1010.7 1010.7 0.0
15/06:00am 11.8 8.8 7.7 76 2.0 W 13 19 7 10 1010.6 1010.6 0.0
15/05:30am 11.9 8.4 7.4 74 2.2 W 15 22 8 12 1010.4 1010.4 0.0
15/05:00am 10.6 7.2 3.8 63 3.0 WNW 11 13 6 7 1010.3 1010.3 0.0
15/04:30am 10.0 6.2 1.6 56 3.5 W 11 17 6 9 1010.0 1010.0 0.0
15/04:00am 7.9 6.5 3.7 75 1.8 CALM 0 0 0 0 1009.5 1009.5 0.0
15/03:30am 8.7 7.3 3.6 70 2.2 CALM 0 0 0 0 1009.8 1009.8 0.0
15/03:00am 11.6 7.9 2.6 54 3.9 WNW 11 15 6 8 1010.1 1010.1 0.0
15/02:30am 9.1 6.5 4.4 72 2.1 E 7 9 4 5 1010.1 1010.1 0.0
15/02:00am 10.2 9.0 4.4 67 2.6 CALM 0 6 0 3 1010.7 1010.7 0.0
15/01:30am 11.4 8.9 4.6 63 3.1 ENE 7 11 4 6 1011.0 1011.0 0.0
15/01:00am 12.8 10.0 3.4 53 4.2 ENE 7 11 4 6 1011.3 1011.3 0.0
15/12:30am 13.8 10.7 3.4 49 4.7 ENE 9 11 5 6 1011.7 1011.7 0.0
15/12:00am 13.8 10.7 3.6 50 4.6 ENE 9 13 5 7 1012.0 1012.0 0.0
 
Date/Time
CST
Temp
°C
App
Temp
°C
Dew
Point
Rel
Hum
%
Delta-T
°C
Wind Press
QNH
hPa
Press
MSL
hPa
Rain
since 9 am
mm
Dir
 
Spd
km/h
Gust
km/h
Spd
kts
Gust
kts
14/11:30pm 14.3 9.6 3.2 47 5.0 E 17 20 9 11 1012.2 1012.2 0.0
14/11:00pm 14.3 9.3 3.5 48 4.9 E 19 24 10 13 1012.9 1012.8 0.0
14/10:30pm 14.9 10.6 3.2 45 5.3 ENE 15 22 8 12 1013.6 1013.5 0.0
14/10:00pm 13.4 10.0 4.2 53 4.2 E 11 13 6 7 1014.2 1014.1 0.0
14/09:30pm 14.1 10.4 4.6 52 4.4 ESE 13 15 7 8 1014.5 1014.5 0.0
14/09:00pm 15.4 11.3 4.2 47 5.2 E 15 17 8 9 1014.7 1014.7 0.0
14/08:30pm 14.7 12.4 5.9 55 4.2 E 7 9 4 5 1014.8 1014.8 0.0
14/08:00pm 15.7 13.2 6.5 54 4.5 E 9 11 5 6 1014.8 1014.8 0.0
14/07:30pm 16.7 14.1 6.0 49 5.2 E 9 13 5 7 1014.8 1014.8 0.0
14/07:00pm 16.8 13.7 7.2 53 4.8 ESE 13 13 7 7 1014.6 1014.6 0.0
14/06:30pm 18.3 15.1 6.9 47 5.7 ESE 13 15 7 8 1014.5 1014.5 0.0
14/06:00pm 19.3 17.1 7.8 47 5.9 ESE 9 11 5 6 1014.4 1014.4 0.0
14/05:30pm 21.7 19.5 7.9 41 7.2 ESE 9 13 5 7 1014.6 1014.6 0.0
14/05:00pm 24.0 21.4 6.3 32 9.1 ESE 9 11 5 6 1014.4 1014.4 0.0
14/04:30pm 24.9 22.3 4.2 26 10.3 E 7 9 4 5 1014.6 1014.6 0.0
14/04:00pm 25.3 23.4 2.6 23 11.0 SSE 2 9 1 5 1014.8 1014.8 0.0
14/03:30pm 25.7 22.9 3.0 23 11.1 SSE 7 9 4 5 1015.1 1015.1 0.0
14/03:00pm 25.3 22.6 2.9 23 10.9 S 6 11 3 6 1015.4 1015.4 0.0
14/02:30pm 24.9 22.4 3.5 25 10.5 ENE 6 9 3 5 1015.7 1015.7 0.0
14/02:00pm 24.4 20.3 2.2 23 10.6 W 13 22 7 12 1016.1 1016.1 0.0
14/01:30pm 24.9 20.4 2.1 22 10.9 SW 15 24 8 13 1016.4 1016.4 0.0
14/01:00pm 25.1 21.4 2.5 23 10.9 N 11 17 6 9 1016.8 1016.8 0.0
14/12:30pm 23.3 20.4 2.5 25 9.9 N 7 19 4 10 1017.2 1017.2 0.0
14/12:00pm 23.4 20.0 2.0 24 10.1 WNW 9 15 5 8 1018.0 1018.0 0.0
14/11:30am 22.1 19.3 3.3 29 9.0 NNW 7 15 4 8 1018.6 1018.6 0.0
14/11:00am 21.6 19.5 3.7 31 8.6 WNW 4 7 2 4 1019.0 1019.0 0.0
14/10:30am 19.7 17.4 4.8 37 7.2 W 6 13 3 7 1019.4 1019.4 0.0
14/10:00am 18.2 17.0 4.6 40 6.5 CALM 0 6 0 3 1019.6 1019.6 0.0
14/09:30am 16.3 14.6 4.0 44 5.7 WSW 2 9 1 5 1019.6 1019.6 0.0
14/09:00am 14.0 11.5 5.0 54 4.2 SSW 7 11 4 6 1020.0 1020.0 0.0
14/08:30am 11.5 9.0 4.9 64 3.0 SSW 7 11 4 6 1020.3 1020.3 0.0
14/08:00am 10.2 7.7 4.6 68 2.5 SSW 7 11 4 6 1020.1 1020.1 0.0
14/07:30am 9.0 5.6 3.9 70 2.2 SW 11 17 6 9 1020.1 1020.1 0.0
14/07:00am 8.3 5.8 3.6 72 2.0 WSW 6 9 3 5 1019.9 1019.9 0.0
14/06:30am 5.7 3.9 3.3 84 1.0 W 2 7 1 4 1019.3 1019.3 0.0
14/06:00am 4.0 2.3 2.0 87 0.8 CALM 0 0 0 0 1019.2 1019.2 0.0
14/05:30am 4.3 2.6 2.0 85 0.9 CALM 0 0 0 0 1019.2 1019.2 0.0
14/05:00am 4.6 2.9 1.8 82 1.1 CALM 0 0 0 0 1018.9 1018.9 0.0
14/04:30am 5.8 3.1 2.6 80 1.3 SW 6 7 3 4 1018.9 1018.9 0.0
14/04:00am 5.6 4.0 2.4 80 1.3 CALM 0 0 0 0 1018.5 1018.5 0.0
14/03:30am 6.3 3.9 2.4 76 1.6 SW 4 9 2 5 1018.5 1018.5 0.0
14/03:00am 5.9 3.0 2.7 80 1.3 ENE 7 9 4 5 1018.8 1018.8 0.0
14/02:30am 6.2 4.7 3.1 80 1.3 CALM 0 0 0 0 1019.3 1019.3 0.0
14/02:00am 6.9 4.3 3.3 78 1.5 E 6 7 3 4 1019.7 1019.7 0.0
14/01:30am 7.4 4.6 2.9 73 1.9 ESE 7 9 4 5 1020.2 1020.2 0.0
14/01:00am 9.0 6.2 3.1 66 2.5 ESE 7 9 4 5 1020.8 1020.8 0.0
14/12:30am 9.4 6.3 3.4 66 2.6 SSE 9 13 5 7 1021.1 1021.1 0.0
14/12:00am 10.4 6.5 3.3 61 3.1 S 13 19 7 10 1021.3 1021.3 0.0
 
Date/Time
CST
Temp
°C
App
Temp
°C
Dew
Point
Rel
Hum
%
Delta-T
°C
Wind Press
QNH
hPa
Press
MSL
hPa
Rain
since 9 am
mm
Dir
 
Spd
km/h
Gust
km/h
Spd
kts
Gust
kts
13/11:30pm 10.7 6.7 3.1 59 3.3 SSW 13 19 7 10 1021.7 1021.7 0.0
13/11:00pm 10.7 7.4 2.5 57 3.5 W 9 15 5 8 1021.9 1021.9 0.0
13/10:30pm 9.5 8.1 3.5 66 2.6 CALM 0 0 0 0 1021.8 1021.8 0.0
13/10:00pm 11.7 8.8 2.7 54 3.9 WSW 7 11 4 6 1021.9 1021.9 0.0
13/09:30pm 9.7 8.4 4.0 67 2.5 CALM 0 0 0 0 1021.6 1021.6 0.0
13/09:00pm 9.3 8.0 4.0 69 2.3 CALM 0 0 0 0 1021.2 1021.2 0.0
13/08:30pm 10.1 8.9 4.5 68 2.5 CALM 0 0 0 0 1021.0 1021.0 0.0
13/08:00pm 10.8 8.5 4.8 66 2.7 NNE 6 6 3 3 1021.0 1021.0 0.0
13/07:30pm 11.9 10.9 5.4 64 3.0 CALM 0 0 0 0 1020.9 1020.9 0.0
13/07:00pm 12.9 11.7 4.8 58 3.7 CALM 0 0 0 0 1020.8 1020.8 0.0
13/06:30pm 15.2 14.1 5.2 51 4.7 CALM 0 0 0 0 1020.6 1020.6 0.0
13/06:00pm 18.6 16.3 4.6 39 6.7 N 6 7 3 4 1020.4 1020.4 0.0
13/05:30pm 21.8 17.8 -2.2 20 10.3 N 9 15 5 8 1020.2 1020.2 0.0
13/05:00pm 22.4 17.5 -3.1 18 10.8 N 13 19 7 10 1020.2 1020.2 0.0
13/04:30pm 22.7 17.9 -2.4 18 10.8 NNW 13 22 7 12 1020.3 1020.3 0.0
13/04:00pm 23.1 18.9 -1.0 20 10.7 NNW 11 19 6 10 1020.4 1020.4 0.0
13/03:30pm 22.9 18.2 -1.5 19 10.7 NNW 13 19 7 10 1020.7 1020.7 0.0
13/03:00pm 22.5 17.0 -2.0 19 10.6 N 17 22 9 12 1021.0 1021.0 0.0
13/02:30pm 22.2 16.8 -1.4 20 10.3 N 17 20 9 11 1021.3 1021.3 0.0
13/02:00pm 21.9 17.7 -0.8 22 10.0 N 11 24 6 13 1021.8 1021.8 0.0
13/01:30pm 21.5 18.2 0.0 24 9.6 NNW 7 22 4 12 1022.3 1022.3 0.0
13/01:00pm 21.1 16.6 -0.5 23 9.5 N 13 24 7 13 1022.8 1022.8 0.0
13/12:30pm 19.9 15.1 0.2 26 8.7 N 15 28 8 15 1023.5 1023.5 0.0
13/12:00pm 19.6 14.7 -0.4 26 8.7 NNW 15 22 8 12 1024.0 1024.0 0.0
13/11:30am 19.4 14.5 -0.4 26 8.6 NNW 15 20 8 11 1024.5 1024.5 0.0
13/11:00am 18.3 13.4 -0.6 28 8.1 N 15 22 8 12 1024.8 1024.8 0.0
13/10:30am 17.9 12.7 0.1 30 7.7 N 17 24 9 13 1025.3 1025.3 0.0
13/10:00am 16.6 11.4 0.3 33 7.0 N 17 24 9 13 1025.6 1025.6 0.0
13/09:30am 16.3 11.2 0.5 34 6.8 N 17 24 9 13 1026.0 1026.0 0.0
13/09:00am 15.0 9.9 0.7 37 6.1 NNE 17 20 9 11 1026.2 1026.2 0.0
13/08:30am 13.2 8.6 1.5 45 5.0 NNE 15 20 8 11 1026.3 1026.3 0.0
13/08:00am 10.3 6.2 2.3 57 3.4 ENE 13 15 7 8 1026.3 1026.3 0.0
13/07:30am 7.7 4.3 2.1 67 2.3 ENE 9 15 5 8 1026.2 1026.2 0.0
13/07:00am 4.7 1.8 1.4 79 1.3 E 6 7 3 4 1026.1 1026.1 0.0
13/06:30am 2.7 -0.5 0.6 86 0.8 ESE 7 7 4 4 1025.8 1025.8 0.0
13/06:00am 2.4 -1.2 0.5 87 0.7 ESE 9 9 5 5 1025.6 1025.6 0.0
13/05:30am 2.1 0.1 0.2 87 0.7 CALM 0 0 0 0 1025.7 1025.7 0.0
13/05:00am 3.0 1.2 1.2 88 0.7 CALM 0 0 0 0 1025.6 1025.6 0.0
13/04:30am 3.9 0.8 1.3 83 1.0 SSE 7 9 4 5 1025.2 1025.2 0.0
13/04:00am 4.1 1.2 1.3 82 1.1 SE 6 7 3 4 1025.0 1025.0 0.0
13/03:30am 4.3 1.2 1.2 80 1.2 SSE 7 9 4 5 1024.9 1024.9 0.0
13/03:00am 4.5 1.6 1.7 82 1.1 SE 6 7 3 4 1025.0 1025.0 0.0
13/02:30am 5.1 2.2 1.5 77 1.4 SE 6 9 3 5 1025.2 1025.2 0.0
13/02:00am 5.9 3.0 1.6 74 1.7 SE 6 7 3 4 1025.2 1025.2 0.0
13/01:30am 5.5 3.7 1.4 75 1.6 CALM 0 0 0 0 1025.3 1025.3 0.0
13/01:00am 6.0 2.5 1.5 73 1.8 SSE 9 11 5 6 1025.8 1025.8 0.0
13/12:30am 6.2 3.1 1.1 70 2.0 SSE 7 11 4 6 1025.9 1025.9 0.0
13/12:00am 7.2 3.7 1.2 65 2.4 SSE 9 13 5 7 1026.1 1026.1 0.0
 
Date/Time
CST
Temp
°C
App
Temp
°C
Dew
Point
Rel
Hum
%
Delta-T
°C
Wind Press
QNH
hPa
Press
MSL
hPa
Rain
since 9 am
mm
Dir
 
Spd
km/h
Gust
km/h
Spd
kts
Gust
kts
12/11:30pm 5.5 2.0 1.2 74 1.7 SSE 9 11 5 6 1026.1 1026.1 0.0
12/11:00pm 5.5 3.9 2.3 80 1.3 CALM 0 0 0 0 1026.1 1026.1 0.0
12/10:30pm 5.6 3.6 2.1 78 1.4 SSE 2 13 1 7 1026.3 1026.3 0.0
12/10:00pm 6.2 4.6 2.3 76 1.6 CALM 0 0 0 0 1026.4 1026.4 0.0
12/09:30pm 6.6 5.0 2.4 74 1.7 CALM 0 0 0 0 1026.4 1026.4 0.0
12/09:00pm 7.4 6.1 4.1 79 1.4 CALM 0 0 0 0 1026.5 1026.5 0.0
12/08:30pm 8.0 6.4 2.7 69 2.2 CALM 0 0 0 0 1026.4 1026.4 0.0
12/08:00pm 8.6 7.0 2.6 66 2.5 CALM 0 0 0 0 1026.3 1026.3 0.0
12/07:30pm 9.5 8.2 4.3 70 2.3 CALM 0 0 0 0 1026.2 1026.2 0.0
12/07:00pm 10.7 9.5 4.7 66 2.7 CALM 0 0 0 0 1025.9 1025.9 0.0
12/06:30pm 11.9 10.9 5.4 64 3.0 CALM 0 0 0 0 1025.5 1025.5 0.0
12/06:00pm 14.1 11.6 4.0 50 4.6 S 6 7 3 4 1025.4 1025.4 0.0
12/05:30pm 17.3 13.9 -0.3 30 7.5 S 7 9 4 5 1025.2 1025.2 0.0
12/05:00pm 18.1 14.7 -0.3 29 8.0 SSE 7 13 4 7 1025.2 1025.2 0.0
12/04:30pm 18.5 14.8 -0.3 28 8.1 S 9 15 5 8 1025.3 1025.3 0.0
12/04:00pm 18.1 13.9 -0.6 28 8.0 S 11 15 6 8 1025.2 1025.2 0.0
12/03:30pm 18.6 14.4 -0.8 27 8.3 WSW 11 17 6 9 1025.5 1025.5 0.0
12/03:00pm 18.2 13.6 -0.8 27 8.1 S 13 22 7 12 1025.4 1025.4 0.0
12/02:30pm 18.4 15.1 0.3 29 7.9 SSW 7 13 4 7 1025.8 1025.8 0.0
12/02:00pm 18.1 15.5 0.8 31 7.6 SE 4 13 2 7 1025.9 1025.9 0.0
12/01:30pm 17.4 13.8 0.6 32 7.3 ENE 9 17 5 9 1026.0 1026.0 0.0
12/01:00pm 17.1 13.4 0.1 31 7.3 N 9 15 5 8 1026.3 1026.3 0.0
12/12:30pm 16.8 13.2 0.6 33 7.0 ESE 9 13 5 7 1026.6 1026.6 0.0
12/12:00pm 16.4 13.0 1.6 37 6.5 E 9 17 5 9 1027.2 1027.2 0.0
12/11:30am 15.4 12.0 1.7 39 6.0 SE 9 15 5 8 1027.6 1027.6 0.0

Other Formats:

Comma delimited format used in spreadsheet applications
http://www.bom.gov.au/fwo/IDS60801/IDS60801.94682.axf

JavaScript Object Notation format (JSON) in row-major order
http://www.bom.gov.au/fwo/IDS60801/IDS60801.94682.json